04:25
Airports
History
Links
Donate
Help keep this website running!
PayPal
Bitcoin
This page is community maintained. The information is intended for PC simulator navigation or reference.
Always use approved charts for navigation.
BIRL
Reykjahlid
Reykjahlid (BIRL)
Northeast, Iceland
4
Lat/Lng:65° 39' 16.98" N / 16° 55' 8.97" W
65.654717 / -16.919157
Elevation:1030'ft / 314mMSL
ID / ICAO:BIRL
Runways:1
Longest:03-21
Gravel 740m / 2,429ft
Nearby Weather04:00 GMT 2017-09-22
Nearby weather at BIAR, AKUREYRI located 32.8 nautical miles from BIRL
Altimeter: 29.56
Visibility: 6.2 statute miles
Wind: 4 knots (from 180°)
Temp: 3°c / 37°f
Humidity: 93.1%

METAR: BIAR 220400Z 18004KT CAVOK 03/02 Q1001

(Powered by phpweather)
Nearby VORs <50NM
Nearby NDBs
Runway 03 / 21
Dimensions:740.3 x 27.4m 2429' x 90'ft
Surface:Gravel
Runway 03 [A]Runway 21 [B]
Heading:008°TH 188°TH
Lat:
Lng:
65° 39' 5.18"N
16° 55' 13.5"W
65° 39' 28.78"N
16° 55' 4.43"W
User Notes and Comments
65° 39' 16.98" N / 16° 55' 8.97" W
Distance To
Airport ID:
Nearby Airports
4 Grimsstadir 22.0 NM
BIGS E 93°
(C) HUSAVIK 25.1 NM
BIHU NW 325°
(C) AKUREYRI 32.8 NM
BIAR ( WX ) W 270°
4 Melgerdismelar 37.5 NM
BIMM WSW 251°
4 Herdubreidalind 38.3 NM
BIHE SSE 147°
4 Kopasker 47.2 NM
BIKP NNE 15°
4 Hrisey 48.2 NM
BIHY WNW 299°
VFR Chart
Flight Planning at SkyVector.com